Time;durP1;ratioP1;P1;durP2;ratioP2;P2;SDS_P1;SDS_P2;PMS_P1;PMS_P2;Temp;Humidity;BMP_temperature;BMP_pressure;BME280_temperature;BME280_humidity;BME280_pressure;Samples;Min_cycle;Max_cycle;Signal;HPM_P1;HPM_P2
2022/04/11 00:00:34;;;;;;;5.77;3.90;;;;;;;1.44;77.28;98126.06;6179042;28;20233;-84
2022/04/11 00:03:36;;;;;;;6.17;4.10;;;;;;;1.33;77.99;98115.19;6174932;28;20230;-84
2022/04/11 00:06:38;;;;;;;4.20;3.53;;;;;;;1.38;78.11;98122.84;6180515;28;20225;-83
2022/04/11 00:09:42;;;;;;;5.93;4.43;;;;;;;1.39;78.17;98119.34;6165384;28;20599;-83
2022/04/11 00:12:45;;;;;;;5.20;4.40;;;;;;;1.64;77.32;98119.25;6168550;28;20229;-83
2022/04/11 00:15:48;;;;;;;4.30;3.90;;;;;;;1.66;77.03;98123.50;6186450;28;20228;-84
2022/04/11 00:18:50;;;;;;;6.60;4.30;;;;;;;1.63;77.27;98115.81;6147889;28;20388;-83
2022/04/11 00:21:52;;;;;;;6.67;5.07;;;;;;;1.65;76.79;98120.97;6181957;28;20236;-84
2022/04/11 00:24:54;;;;;;;5.57;3.83;;;;;;;1.54;77.26;98120.50;6165756;28;20231;-83
2022/04/11 00:27:57;;;;;;;5.50;4.40;;;;;;;1.50;77.47;98109.38;6165489;28;20228;-83
2022/04/11 00:31:01;;;;;;;5.87;4.77;;;;;;;1.57;76.93;98115.22;6180698;28;20237;-84
2022/04/11 00:34:04;;;;;;;6.40;4.80;;;;;;;1.56;76.98;98110.91;6195034;28;20225;-84
2022/04/11 00:37:07;;;;;;;6.50;4.60;;;;;;;1.54;76.88;98108.34;6181103;28;20319;-83
2022/04/11 00:40:10;;;;;;;5.03;4.33;;;;;;;1.57;76.38;98118.66;6181526;28;20259;-83
2022/04/11 00:43:32;;;;;;;5.30;4.63;;;;;;;1.51;77.02;98110.22;6164923;28;20706;-83
2022/04/11 00:46:35;;;;;;;4.50;4.10;;;;;;;1.44;76.88;98113.06;6140272;28;20325;-83
2022/04/11 00:49:37;;;;;;;6.50;3.70;;;;;;;1.34;76.99;98116.91;6151021;28;20248;-83
2022/04/11 00:52:45;;;;;;;5.77;4.30;;;;;;;1.36;77.52;98120.28;6166441;28;20325;-84
2022/04/11 00:55:49;;;;;;;6.00;5.20;;;;;;;1.33;77.74;98133.41;6180958;28;20233;-83
2022/04/11 00:58:52;;;;;;;5.37;4.37;;;;;;;1.44;77.75;98133.84;6164237;28;20229;-83
2022/04/11 01:01:56;;;;;;;7.13;4.93;;;;;;;1.53;77.49;98132.66;6181987;28;20229;-84
2022/04/11 01:04:59;;;;;;;7.00;5.27;;;;;;;1.65;76.93;98133.97;6180191;28;20331;-84
2022/04/11 01:08:07;;;;;;;6.33;4.73;;;;;;;1.73;76.25;98130.19;6164068;28;20312;-83
2022/04/11 01:11:09;;;;;;;4.93;4.47;;;;;;;1.73;76.18;98126.72;6155933;28;20313;-83
2022/04/11 01:14:12;;;;;;;5.10;4.50;;;;;;;1.79;76.41;98134.31;6179473;28;20233;-84
2022/04/11 01:17:14;;;;;;;5.10;4.33;;;;;;;1.81;75.85;98128.13;6165410;28;20229;-84
2022/04/11 01:20:20;;;;;;;5.33;3.60;;;;;;;1.77;75.61;98134.38;6166861;28;20838;-84
2022/04/11 01:23:22;;;;;;;4.60;4.17;;;;;;;1.44;76.48;98135.59;6180268;28;20225;-83
2022/04/11 01:26:26;;;;;;;5.80;4.93;;;;;;;1.63;76.52;98123.63;6178691;28;20295;-83
2022/04/11 01:29:28;;;;;;;6.30;5.03;;;;;;;1.68;76.62;98123.47;6179629;28;20233;-83
2022/04/11 01:32:31;;;;;;;5.40;4.70;;;;;;;1.69;76.88;98131.22;6180417;28;20236;-83
2022/04/11 01:35:33;;;;;;;5.53;4.80;;;;;;;1.73;76.59;98124.97;6179648;28;20316;-85
2022/04/11 01:38:37;;;;;;;6.57;4.50;;;;;;;1.82;76.70;98139.38;6163230;28;20257;-85
2022/04/11 01:41:39;;;;;;;6.17;4.40;;;;;;;1.82;75.85;98137.63;6179397;28;20602;-84
2022/04/11 01:44:42;;;;;;;4.33;3.80;;;;;;;1.52;76.30;98143.13;6179010;28;20756;-85
2022/04/11 01:47:46;;;;;;;5.10;4.37;;;;;;;1.45;77.37;98138.16;6163788;28;20326;-85
2022/04/11 01:50:49;;;;;;;6.93;4.70;;;;;;;1.59;77.28;98135.06;6163677;28;20328;-85
2022/04/11 01:53:52;;;;;;;5.23;4.33;;;;;;;1.72;76.19;98141.47;6180231;28;20244;-84
2022/04/11 01:56:54;;;;;;;4.97;4.30;;;;;;;1.76;76.34;98126.63;6178626;28;20232;-85
2022/04/11 01:59:58;;;;;;;6.07;4.70;;;;;;;1.69;76.26;98135.56;6163568;28;20225;-85
2022/04/11 02:03:01;;;;;;;6.70;4.67;;;;;;;1.68;76.75;98131.28;6171532;28;20234;-84
2022/04/11 02:06:04;;;;;;;8.23;4.80;;;;;;;1.82;75.78;98124.63;6178462;28;20438;-84
2022/04/11 02:09:07;;;;;;;5.20;3.53;;;;;;;1.67;75.75;98126.97;6187425;28;20219;-84
2022/04/11 02:12:10;;;;;;;5.77;4.73;;;;;;;1.42;76.67;98129.59;6166017;28;20299;-84
2022/04/11 02:15:13;;;;;;;4.57;4.07;;;;;;;1.47;76.89;98122.50;6181475;28;20688;-85
2022/04/11 02:18:16;;;;;;;6.43;4.50;;;;;;;1.37;77.12;98119.41;6178934;28;20233;-85
2022/04/11 02:21:18;;;;;;;4.43;3.90;;;;;;;1.46;76.83;98131.22;6163065;28;20233;-85
2022/04/11 02:24:20;;;;;;;5.53;4.00;;;;;;;1.42;76.46;98127.00;6179351;28;20223;-84
2022/04/11 02:27:22;;;;;;;5.17;4.27;;;;;;;1.10;77.11;98130.75;6179601;28;20237;-85
2022/04/11 02:30:25;;;;;;;4.33;3.73;;;;;;;0.89;77.98;98131.53;6163051;28;20255;-84
2022/04/11 02:33:27;;;;;;;3.77;3.43;;;;;;;0.63;78.74;98138.44;6162639;28;20224;-85
2022/04/11 02:36:29;;;;;;;4.73;3.93;;;;;;;0.42;79.22;98140.88;6154004;28;20299;-84
2022/04/11 02:39:33;;;;;;;4.80;4.30;;;;;;;0.26;79.71;98145.75;6167039;28;20230;-84
2022/04/11 02:42:41;;;;;;;5.33;4.27;;;;;;;0.11;80.15;98156.59;6171631;28;20231;-85
2022/04/11 02:45:45;;;;;;;6.13;4.20;;;;;;;0.02;80.50;98156.88;6179863;28;20301;-84
2022/04/11 02:48:51;;;;;;;5.57;4.33;;;;;;;-0.09;80.60;98159.78;6182091;28;20241;-84
2022/04/11 02:52:18;;;;;;;5.17;4.37;;;;;;;-0.13;81.18;98165.97;6166446;28;20530;-87
2022/04/11 02:55:21;;;;;;;5.67;4.37;;;;;;;-0.15;81.46;98165.19;6163290;28;20237;-84
2022/04/11 02:58:24;;;;;;;5.43;4.37;;;;;;;-0.19;81.64;98168.75;6162229;28;20240;-85
2022/04/11 03:01:26;;;;;;;5.83;4.90;;;;;;;-0.21;82.22;98171.41;6159627;28;20728;-84
2022/04/11 03:04:29;;;;;;;4.90;4.33;;;;;;;-0.22;82.53;98180.06;6154505;28;20238;-84
2022/04/11 03:07:45;;;;;;;4.83;4.33;;;;;;;-0.26;82.14;98178.44;6170331;28;20242;-84
2022/04/11 03:10:49;;;;;;;6.90;4.70;;;;;;;-0.24;82.19;98183.59;6201101;28;20287;-84
2022/04/11 03:13:52;;;;;;;6.30;4.97;;;;;;;-0.23;82.19;98180.97;6166447;28;20719;-84
2022/04/11 03:16:55;;;;;;;6.80;4.93;;;;;;;-0.19;82.32;98190.34;6162195;28;20222;-84
2022/04/11 03:19:57;;;;;;;7.43;5.10;;;;;;;-0.16;82.11;98186.81;6170860;28;20233;-84
2022/04/11 03:22:59;;;;;;;7.53;4.77;;;;;;;-0.14;82.42;98178.09;6162926;28;20237;-84
2022/04/11 03:26:06;;;;;;;8.30;5.77;;;;;;;-0.02;82.84;98188.13;6163014;28;20236;-84
2022/04/11 03:29:11;;;;;;;6.37;5.30;;;;;;;0.12;82.50;98186.84;6161969;28;20600;-84
2022/04/11 03:32:13;;;;;;;7.10;5.40;;;;;;;0.17;82.57;98183.22;6177129;28;20252;-84
2022/04/11 03:35:15;;;;;;;8.73;6.03;;;;;;;0.22;83.25;98189.09;6162360;28;20312;-84
2022/04/11 03:38:18;;;;;;;5.30;4.80;;;;;;;0.28;83.37;98193.25;6181728;28;20249;-84
2022/04/11 03:41:23;;;;;;;8.73;5.87;;;;;;;0.32;83.14;98187.06;6166537;28;20312;-84
2022/04/11 03:44:28;;;;;;;6.27;5.40;;;;;;;0.39;83.37;98191.19;6182606;28;20229;-84
2022/04/11 03:47:35;;;;;;;8.07;5.53;;;;;;;0.45;83.21;98190.13;6165859;28;20319;-84
2022/04/11 03:50:39;;;;;;;9.07;5.20;;;;;;;0.49;83.01;98197.78;6164940;28;20269;-84
2022/04/11 03:53:42;;;;;;;6.67;5.33;;;;;;;0.53;83.24;98193.31;6163695;28;20792;-85
2022/04/11 03:56:44;;;;;;;6.13;5.43;;;;;;;0.70;83.24;98193.63;6165150;28;20304;-84
2022/04/11 03:59:46;;;;;;;7.83;5.73;;;;;;;0.76;83.10;98202.97;6183346;28;20236;-84
2022/04/11 04:02:49;;;;;;;7.83;5.33;;;;;;;1.03;82.06;98196.84;6181348;28;20287;-84
2022/04/11 04:05:52;;;;;;;7.20;4.40;;;;;;;1.08;81.46;98202.75;6181956;28;20243;-84
2022/04/11 04:08:58;;;;;;;5.97;4.77;;;;;;;1.01;81.95;98201.25;6180778;28;20602;-84
2022/04/11 04:12:06;;;;;;;6.67;4.37;;;;;;;0.99;81.69;98209.13;6155188;28;20607;-84
2022/04/11 04:15:17;;;;;;;8.00;4.73;;;;;;;0.99;82.05;98205.69;6162581;28;20209;-84
2022/04/11 04:18:26;;;;;;;5.93;4.57;;;;;;;0.99;82.03;98210.88;6160871;28;20284;-84
2022/04/11 04:21:30;;;;;;;6.07;3.97;;;;;;;0.98;82.46;98209.16;6166327;28;20315;-84
2022/04/11 04:24:34;;;;;;;4.73;3.80;;;;;;;1.01;82.87;98207.28;6181106;28;20224;-84
2022/04/11 04:27:36;;;;;;;6.17;4.17;;;;;;;1.09;82.25;98213.13;6165915;28;20303;-84
2022/04/11 04:30:40;;;;;;;4.97;4.23;;;;;;;1.15;82.47;98213.78;6164738;28;20625;-84
2022/04/11 04:33:42;;;;;;;5.83;4.47;;;;;;;1.21;82.32;98213.56;6165118;28;20244;-84
2022/04/11 04:36:47;;;;;;;6.17;4.40;;;;;;;1.28;82.17;98215.06;6166274;28;20312;-84
2022/04/11 04:39:49;;;;;;;6.70;4.40;;;;;;;1.28;82.00;98210.72;6166263;28;20232;-84
2022/04/11 04:42:52;;;;;;;5.30;4.37;;;;;;;1.31;82.30;98214.94;6164729;28;20832;-84
2022/04/11 04:45:55;;;;;;;4.73;4.23;;;;;;;1.36;82.29;98220.84;6180510;28;20237;-84
2022/04/11 04:49:07;;;;;;;5.20;4.27;;;;;;;1.40;82.19;98218.06;6164804;28;20376;-84
2022/04/11 05:55:42;;;;;;;5.97;2.53;;;;;;;2.80;70.98;98249.22;6179167;28;20239;-85
2022/04/11 05:58:44;;;;;;;5.67;2.50;;;;;;;2.84;71.22;98255.16;6159683;28;20242;-84
2022/04/11 06:01:47;;;;;;;6.70;3.00;;;;;;;2.92;70.25;98247.88;6183587;28;20234;-83
2022/04/11 06:04:49;;;;;;;4.50;2.70;;;;;;;3.08;68.90;98243.75;6178440;28;20238;-83
2022/04/11 06:07:52;;;;;;;4.27;2.40;;;;;;;3.20;67.71;98252.81;6178805;28;20309;-85
2022/04/11 06:10:56;;;;;;;4.40;3.00;;;;;;;3.19;67.11;98256.34;6183368;28;20252;-84
2022/04/11 06:14:00;;;;;;;5.23;3.03;;;;;;;3.18;66.73;98252.06;6140175;28;20601;-83
2022/04/11 06:17:03;;;;;;;4.60;2.83;;;;;;;3.20;66.72;98251.06;6171392;28;20238;-84
2022/04/11 06:20:06;;;;;;;4.87;3.23;;;;;;;3.27;66.08;98252.50;6163462;28;20716;-83
2022/04/11 06:23:09;;;;;;;6.97;3.67;;;;;;;3.28;66.43;98254.22;6153823;28;20242;-83
2022/04/11 06:26:11;;;;;;;4.40;3.33;;;;;;;3.28;66.36;98253.38;6155513;28;20238;-84
2022/04/11 06:29:17;;;;;;;4.83;3.07;;;;;;;3.32;65.91;98253.16;6180340;28;20317;-87
2022/04/11 06:32:26;;;;;;;5.33;3.33;;;;;;;3.41;65.87;98245.84;6154605;28;20239;-84
2022/04/11 06:35:29;;;;;;;3.93;2.50;;;;;;;3.43;65.71;98254.47;6156025;28;20354;-83
2022/04/11 06:38:31;;;;;;;4.67;3.20;;;;;;;3.49;64.10;98246.41;6177294;28;20284;-84
2022/04/11 06:41:34;;;;;;;6.10;3.07;;;;;;;3.61;63.18;98249.28;6179018;28;20226;-86
2022/04/11 06:44:38;;;;;;;4.50;2.37;;;;;;;3.68;62.66;98250.75;6177749;28;20302;-84
2022/04/11 06:47:47;;;;;;;3.47;2.67;;;;;;;3.77;61.75;98252.09;6172570;28;20251;-84
2022/04/11 06:50:51;;;;;;;4.73;2.17;;;;;;;3.82;61.81;98250.13;6168395;28;20226;-83
2022/04/11 06:53:53;;;;;;;4.03;2.70;;;;;;;3.88;62.58;98243.81;6152190;28;20355;-84
2022/04/11 06:56:55;;;;;;;3.93;2.83;;;;;;;4.05;61.65;98251.72;6161694;28;20247;-84
2022/04/11 06:59:57;;;;;;;5.83;2.70;;;;;;;4.30;60.78;98257.50;6177975;28;20233;-84
2022/04/11 07:02:59;;;;;;;4.33;3.10;;;;;;;4.48;60.35;98252.38;6161970;28;20229;-84
2022/04/11 07:06:01;;;;;;;5.87;3.13;;;;;;;4.62;59.81;98261.25;6169600;28;20314;-85
2022/04/11 07:09:04;;;;;;;4.43;2.40;;;;;;;4.75;59.57;98258.91;6169392;28;20287;-84
2022/04/11 07:12:06;;;;;;;3.00;2.03;;;;;;;5.00;56.98;98253.31;6175700;28;20247;-85
2022/04/11 07:15:09;;;;;;;3.27;1.80;;;;;;;5.25;58.54;98256.44;6148909;28;20657;-84
2022/04/11 07:18:12;;;;;;;6.87;2.27;;;;;;;5.51;57.06;98255.97;6157135;28;20216;-85
2022/04/11 07:21:14;;;;;;;3.70;2.30;;;;;;;5.89;55.67;98254.03;6156844;28;20349;-84
2022/04/11 07:24:16;;;;;;;3.47;2.33;;;;;;;5.97;55.42;98252.81;6149636;28;20214;-85
2022/04/11 07:27:19;;;;;;;3.67;2.20;;;;;;;5.97;54.76;98247.56;6184762;28;20207;-84
2022/04/11 07:30:21;;;;;;;4.97;2.70;;;;;;;6.44;53.71;98253.72;6189123;28;20302;-84
2022/04/11 07:33:24;;;;;;;6.80;2.23;;;;;;;6.72;52.74;98253.03;6182728;28;20252;-84
2022/04/11 07:36:28;;;;;;;3.40;2.40;;;;;;;6.59;52.42;98252.88;6182322;28;20240;-85
2022/04/11 07:39:30;;;;;;;3.07;2.40;;;;;;;6.76;51.83;98246.72;6171809;28;20356;-84
2022/04/11 07:42:32;;;;;;;2.40;2.03;;;;;;;6.77;51.61;98251.03;6166196;28;20240;-84
2022/04/11 07:45:34;;;;;;;4.33;2.77;;;;;;;7.57;51.72;98242.03;6165181;28;20237;-84
2022/04/11 07:48:36;;;;;;;6.20;2.73;;;;;;;8.23;49.87;98238.88;6181414;28;20882;-84
2022/04/11 07:51:40;;;;;;;4.63;2.43;;;;;;;8.15;49.36;98242.00;6165627;28;20237;-85
2022/04/11 07:54:42;;;;;;;3.53;2.27;;;;;;;7.41;50.14;98250.81;6182335;28;20627;-85
2022/04/11 07:57:44;;;;;;;7.10;3.67;;;;;;;6.94;50.12;98258.78;6183433;28;20240;-85
2022/04/11 08:00:54;;;;;;;7.07;4.53;;;;;;;6.98;51.24;98255.06;6187838;28;20259;-84
2022/04/11 08:03:56;;;;;;;2.73;2.10;;;;;;;7.63;50.40;98249.53;6162179;28;20321;-85
2022/04/11 08:06:59;;;;;;;3.40;2.03;;;;;;;8.49;48.17;98246.00;6155360;28;20232;-85
2022/04/11 08:10:06;;;;;;;2.87;1.80;;;;;;;9.17;46.67;98227.59;6165482;28;20245;-85
2022/04/11 08:13:09;;;;;;;2.73;1.90;;;;;;;9.61;46.92;98232.53;6170155;28;20241;-85
2022/04/11 08:16:12;;;;;;;1.97;1.47;;;;;;;10.06;44.94;98222.44;6181533;28;20851;-85
2022/04/11 08:19:14;;;;;;;2.73;1.60;;;;;;;10.39;42.95;98228.00;6180788;28;20240;-84
2022/04/11 08:22:18;;;;;;;2.93;1.67;;;;;;;9.99;42.51;98222.84;6163524;28;20541;-85
2022/04/11 08:25:20;;;;;;;2.20;1.23;;;;;;;9.37;44.66;98223.66;6160648;28;20783;-85
2022/04/11 08:28:25;;;;;;;2.03;1.30;;;;;;;9.58;45.10;98230.13;6157448;28;20328;-85
2022/04/11 08:31:27;;;;;;;4.20;1.80;;;;;;;9.16;43.03;98242.56;6140367;28;20245;-84
2022/04/11 08:34:29;;;;;;;3.33;1.50;;;;;;;8.56;44.75;98241.22;6150995;28;20238;-84
2022/04/11 08:37:36;;;;;;;3.63;1.60;;;;;;;8.99;43.70;98234.88;6147504;28;20748;-85
2022/04/11 08:40:39;;;;;;;2.57;1.07;;;;;;;9.90;42.79;98228.75;6164750;28;20687;-85
2022/04/11 08:43:42;;;;;;;5.03;1.33;;;;;;;10.84;41.74;98223.03;6157128;28;20695;-85
2022/04/11 08:46:47;;;;;;;2.73;1.40;;;;;;;11.29;41.05;98221.41;6162293;28;20221;-85
2022/04/11 08:49:50;;;;;;;2.80;1.30;;;;;;;11.10;38.87;98232.50;6180547;28;20225;-85
2022/04/11 08:52:55;;;;;;;2.10;1.00;;;;;;;11.42;38.42;98227.47;6180052;28;20241;-85
2022/04/11 08:55:57;;;;;;;1.83;1.00;;;;;;;11.90;36.25;98227.38;6172564;28;20247;-85
2022/04/11 08:59:02;;;;;;;1.83;1.03;;;;;;;11.97;36.70;98215.41;6169662;28;20233;-85
2022/04/11 09:02:11;;;;;;;1.53;0.80;;;;;;;12.16;35.13;98219.13;6165746;28;20606;-85
2022/04/11 09:05:19;;;;;;;2.47;0.90;;;;;;;12.65;36.51;98223.19;6176509;28;20739;-85
2022/04/11 09:08:42;;;;;;;2.67;1.20;;;;;;;12.26;33.45;98226.34;6168087;28;20263;-86
2022/04/11 09:11:44;;;;;;;3.63;1.20;;;;;;;12.01;33.36;98222.97;6165758;28;20238;-86
2022/04/11 09:14:53;;;;;;;3.03;0.97;;;;;;;12.51;34.25;98226.94;6155519;28;20378;-85
2022/04/11 09:17:58;;;;;;;2.50;1.10;;;;;;;12.45;33.52;98230.06;6176203;28;20231;-85
2022/04/11 09:21:17;;;;;;;1.83;0.90;;;;;;;12.68;34.91;98224.72;6180021;28;20760;-91
2022/04/11 09:24:22;;;;;;;1.57;0.70;;;;;;;13.23;34.36;98218.50;6179829;28;20564;-87
2022/04/11 09:27:25;;;;;;;2.73;1.10;;;;;;;13.77;33.60;98210.41;6171922;28;20224;-92
2022/04/11 09:30:31;;;;;;;2.33;0.90;;;;;;;13.22;31.18;98212.34;6168540;28;20231;-87
2022/04/11 09:33:40;;;;;;;3.43;0.90;;;;;;;12.82;32.62;98227.13;6181863;28;20308;-89
2022/04/11 09:37:25;;;;;;;;;;;;;;;;;;;;;
2022/04/11 09:40:54;;;;;;;2.07;0.90;;;;;;;12.79;30.38;98203.53;6162970;28;20304;-87
2022/04/11 09:44:24;;;;;;;3.53;1.50;;;;;;;13.20;31.38;98210.78;6157411;28;20241;-90
2022/04/11 09:48:05;;;;;;;2.47;0.80;;;;;;;12.82;31.81;98205.94;6139890;28;20347;-86
2022/04/11 09:51:13;;;;;;;1.13;0.80;;;;;;;13.45;31.34;98197.19;6169151;28;20210;-85
2022/04/11 11:53:19;;;;;;;2.27;0.70;;;;;;;14.64;24.35;98085.97;4513729;28;20226;-83
2022/04/11 11:56:22;;;;;;;1.17;0.63;;;;;;;15.52;24.50;98078.59;6170280;28;20232;-82
2022/04/11 11:59:25;;;;;;;1.03;0.53;;;;;;;16.60;24.36;98072.63;6165999;28;20768;-85
2022/04/11 12:05:57;;;;;;;1.17;0.73;;;;;;;15.73;23.21;98065.13;6159991;28;20848;-89
2022/04/11 12:09:01;;;;;;;1.30;0.90;;;;;;;15.92;22.38;98063.34;6180828;28;20232;-84
2022/04/11 12:12:05;;;;;;;1.40;0.70;;;;;;;16.39;22.53;98056.91;6179628;28;20248;-85
2022/04/11 12:15:08;;;;;;;1.50;0.70;;;;;;;16.22;23.36;98049.75;6165303;28;20213;-87
2022/04/11 12:18:12;;;;;;;2.20;0.80;;;;;;;15.73;24.30;98049.16;6164734;28;20233;-83
2022/04/11 12:21:15;;;;;;;2.37;1.07;;;;;;;16.18;23.31;98051.03;6177045;28;20236;-83
2022/04/11 12:24:30;;;;;;;1.93;0.90;;;;;;;15.52;24.14;98038.69;6180789;28;20216;-84
2022/04/11 12:27:32;;;;;;;1.90;1.00;;;;;;;15.54;26.04;98035.06;6179977;28;20252;-83
2022/04/11 12:30:46;;;;;;;2.30;1.10;;;;;;;16.15;27.33;98030.03;6165390;28;20606;-83
2022/04/11 12:33:51;;;;;;;2.67;0.90;;;;;;;16.21;24.25;98030.25;6181624;28;20237;-83
2022/04/11 12:36:59;;;;;;;1.80;0.90;;;;;;;15.69;25.32;98026.47;6165123;28;20615;-83
2022/04/11 12:40:01;;;;;;;2.30;1.10;;;;;;;15.53;24.46;98028.91;6163396;28;20224;-86
2022/04/11 12:43:04;;;;;;;3.17;1.10;;;;;;;15.72;24.67;98014.69;6181135;28;20237;-87
2022/04/11 12:46:06;;;;;;;1.73;0.80;;;;;;;16.14;25.20;98015.88;6173019;28;20237;-87
2022/04/11 12:49:11;;;;;;;1.40;0.63;;;;;;;16.31;25.37;98016.88;6163535;28;20237;-86
2022/04/11 12:52:25;;;;;;;2.53;1.00;;;;;;;16.71;26.22;98018.28;6179370;28;20248;-86
2022/04/11 12:55:30;;;;;;;1.53;0.80;;;;;;;15.90;24.88;98012.94;6159629;28;20599;-86
2022/04/11 12:58:37;;;;;;;2.63;0.90;;;;;;;15.70;24.23;98014.00;6177375;28;20855;-87
2022/04/11 13:02:11;;;;;;;4.63;1.10;;;;;;;15.66;24.46;98004.66;6177971;28;20720;-87
2022/04/11 13:05:15;;;;;;;2.67;0.77;;;;;;;15.76;25.93;98003.63;6160652;28;20566;-86
2022/04/11 13:08:33;;;;;;;1.73;0.97;;;;;;;15.97;25.31;98003.34;6181288;28;20336;-86
2022/04/11 13:11:45;;;;;;;2.33;1.10;;;;;;;15.27;24.69;98006.59;6164216;28;20236;-87
2022/04/11 13:15:07;;;;;;;0.73;0.70;;;;;;;15.67;25.58;98001.81;6171952;28;20678;-86
2022/04/11 13:18:25;;;;;;;2.47;1.13;;;;;;;15.08;24.87;97995.00;6160471;28;20630;-86
2022/04/11 13:21:28;;;;;;;1.47;0.90;;;;;;;15.85;25.74;97986.78;6173249;28;20621;-86
2022/04/11 13:24:31;;;;;;;1.00;0.67;;;;;;;16.06;24.05;97981.19;6196047;28;20245;-86
2022/04/11 13:27:33;;;;;;;1.73;0.90;;;;;;;16.28;24.37;97977.22;6179434;28;20248;-86
2022/04/11 13:30:35;;;;;;;1.70;0.97;;;;;;;15.91;24.99;97972.00;6162730;28;20590;-86
2022/04/11 13:33:38;;;;;;;1.33;0.83;;;;;;;15.82;24.34;97972.91;6178452;28;20236;-86
2022/04/11 13:36:41;;;;;;;1.37;0.90;;;;;;;15.64;24.37;97962.22;6179643;28;20643;-86
2022/04/11 13:39:44;;;;;;;1.10;0.67;;;;;;;15.85;24.76;97954.84;6178911;28;20233;-86
2022/04/11 13:42:46;;;;;;;1.13;0.87;;;;;;;16.02;23.76;97949.66;6162703;28;20271;-86
2022/04/11 13:46:08;;;;;;;1.50;0.80;;;;;;;15.69;24.01;97951.97;6166750;28;20709;-86
2022/04/11 13:49:14;;;;;;;2.30;0.90;;;;;;;15.27;25.05;97948.91;6178962;28;20233;-86
2022/04/11 13:52:25;;;;;;;2.53;0.93;;;;;;;15.56;26.02;97937.34;6164238;28;20244;-86
2022/04/11 13:55:28;;;;;;;2.70;0.90;;;;;;;16.55;23.79;97939.88;6163027;28;20698;-86
2022/04/11 13:58:30;;;;;;;1.50;0.90;;;;;;;18.57;22.32;97932.88;6154469;28;20233;-86
2022/04/11 14:01:32;;;;;;;1.63;0.80;;;;;;;21.73;18.70;97928.34;6162614;28;20236;-86
2022/04/11 14:04:34;;;;;;;1.57;0.90;;;;;;;24.11;16.69;97923.06;6142453;28;20256;-86
2022/04/11 14:07:36;;;;;;;2.77;1.00;;;;;;;24.62;15.82;97905.38;6139821;28;20234;-87
2022/04/11 14:10:44;;;;;;;2.17;0.90;;;;;;;22.38;17.69;97917.53;6178751;28;20232;-86
2022/04/11 14:13:47;;;;;;;2.00;1.00;;;;;;;22.03;18.90;97921.09;6179342;28;20433;-86
2022/04/11 14:16:49;;;;;;;2.50;0.77;;;;;;;21.62;17.45;97924.28;6177881;28;20225;-86
2022/04/11 14:19:51;;;;;;;2.07;1.13;;;;;;;19.98;19.14;97924.19;6178470;28;20561;-86
2022/04/11 14:22:53;;;;;;;1.77;1.00;;;;;;;20.45;18.46;97914.22;6162673;28;20303;-86
2022/04/11 14:25:55;;;;;;;2.93;1.03;;;;;;;20.53;19.02;97916.00;6154235;28;20603;-86
2022/04/11 14:28:57;;;;;;;2.57;0.97;;;;;;;20.19;19.48;97911.00;6168732;28;20260;-86
2022/04/11 14:32:00;;;;;;;3.07;0.80;;;;;;;21.27;18.39;97909.75;6178396;28;20783;-87
2022/04/11 14:35:03;;;;;;;2.67;0.63;;;;;;;23.66;17.10;97903.00;6164178;28;20234;-86
2022/04/11 14:38:05;;;;;;;1.37;0.70;;;;;;;25.40;14.68;97900.13;6153535;28;20237;-86
2022/04/11 14:44:36;;;;;;;2.73;0.90;;;;;;;25.80;14.20;97900.84;6156953;28;20368;-86
2022/04/11 14:47:38;;;;;;;2.30;1.30;;;;;;;25.82;13.65;97893.38;6158680;28;20598;-86
2022/04/11 14:50:41;;;;;;;2.70;1.10;;;;;;;26.52;13.39;97878.00;6169813;28;20237;-87
2022/04/11 14:53:43;;;;;;;1.50;0.97;;;;;;;26.98;12.81;97869.50;6163568;28;20233;-86
2022/04/11 14:56:45;;;;;;;2.53;1.20;;;;;;;26.97;13.69;97870.56;6179587;28;20236;-87
2022/04/11 14:59:47;;;;;;;1.90;1.10;;;;;;;27.35;12.63;97878.50;6180428;28;20237;-87
2022/04/11 15:02:49;;;;;;;1.90;1.00;;;;;;;27.84;12.51;97874.03;6163430;28;20237;-87
2022/04/11 15:05:51;;;;;;;5.20;1.40;;;;;;;27.74;12.73;97871.84;6162864;28;20228;-87
2022/04/11 15:08:53;;;;;;;2.07;1.30;;;;;;;28.04;12.90;97860.19;6183633;28;20232;-86
2022/04/11 15:11:56;;;;;;;2.77;1.13;;;;;;;26.21;13.47;97861.72;6178932;28;20720;-86
2022/04/11 15:14:58;;;;;;;3.93;1.10;;;;;;;26.57;13.69;97847.53;6130057;28;20608;-86
2022/04/11 15:18:00;;;;;;;2.10;1.30;;;;;;;26.46;13.26;97847.22;6161602;28;20736;-86
2022/04/11 15:21:03;;;;;;;1.10;1.00;;;;;;;25.58;14.38;97854.31;6129652;28;20234;-87
2022/04/11 15:24:06;;;;;;;3.07;1.47;;;;;;;22.74;15.92;97858.25;6161838;28;20217;-86
2022/04/11 15:27:09;;;;;;;1.43;1.13;;;;;;;21.87;16.62;97854.09;6177208;28;20585;-86
2022/04/11 15:30:11;;;;;;;2.20;1.00;;;;;;;20.64;17.90;97851.19;6161426;28;20217;-86
2022/04/11 15:33:14;;;;;;;3.93;1.20;;;;;;;16.73;21.62;97856.41;6159531;28;20717;-86
2022/04/11 15:36:16;;;;;;;1.47;1.03;;;;;;;14.63;24.28;97851.34;6159920;28;20579;-86
2022/04/11 15:39:19;;;;;;;2.47;1.10;;;;;;;14.08;25.77;97854.75;6165929;28;20264;-86
2022/04/11 15:42:24;;;;;;;2.80;1.27;;;;;;;13.52;26.76;97860.75;6183149;28;20256;-86
2022/04/11 15:45:28;;;;;;;1.10;0.97;;;;;;;12.74;27.56;97856.97;6166171;28;20778;-86
2022/04/11 15:48:30;;;;;;;0.90;0.80;;;;;;;12.36;28.23;97864.72;6183329;28;20225;-86
2022/04/11 15:51:35;;;;;;;3.57;1.20;;;;;;;12.09;28.99;97867.84;6166253;28;20577;-86
2022/04/11 15:54:37;;;;;;;4.23;1.10;;;;;;;11.87;29.36;97867.97;6166071;28;20245;-87
2022/04/11 15:57:39;;;;;;;1.70;1.30;;;;;;;11.66;29.64;97858.16;6181768;28;20242;-86
2022/04/11 16:00:43;;;;;;;1.27;1.13;;;;;;;11.23;31.27;97859.94;6180763;28;20240;-86
2022/04/11 16:03:46;;;;;;;2.80;1.50;;;;;;;11.02;30.38;97863.34;6183263;28;20718;-86
2022/04/11 16:06:48;;;;;;;1.43;0.90;;;;;;;10.96;31.09;97866.47;6182380;28;20725;-86
2022/04/11 16:09:50;;;;;;;1.80;1.30;;;;;;;10.97;30.53;97867.31;6179998;28;20257;-86
2022/04/11 16:12:52;;;;;;;2.10;1.00;;;;;;;10.76;30.89;97861.91;6187972;28;20235;-86
2022/04/11 16:15:57;;;;;;;2.10;0.90;;;;;;;10.71;30.51;97859.63;6181985;28;20326;-86
2022/04/11 16:19:00;;;;;;;3.57;1.00;;;;;;;10.65;31.28;97857.47;6182861;28;20230;-85
2022/04/11 16:22:02;;;;;;;1.50;1.00;;;;;;;10.68;31.27;97866.94;6181463;28;20226;-85
2022/04/11 16:25:05;;;;;;;1.10;0.90;;;;;;;10.63;31.58;97867.28;6166214;28;20228;-85
2022/04/11 16:28:07;;;;;;;3.40;1.17;;;;;;;10.48;30.46;97862.38;6164968;28;20225;-85
2022/04/11 16:31:10;;;;;;;1.87;0.97;;;;;;;10.33;31.87;97867.84;6181308;28;20648;-85
2022/04/11 16:34:12;;;;;;;1.10;0.90;;;;;;;10.27;31.71;97872.75;6181604;28;20782;-85
2022/04/11 16:37:15;;;;;;;3.80;1.10;;;;;;;10.11;32.34;97870.41;6164820;28;20240;-85
2022/04/11 16:40:18;;;;;;;1.90;1.10;;;;;;;9.96;32.91;97861.84;6158391;28;20319;-86
2022/04/11 16:43:20;;;;;;;2.33;1.17;;;;;;;9.84;32.49;97864.56;6171521;28;20233;-86
2022/04/11 16:46:23;;;;;;;1.90;0.90;;;;;;;9.91;33.10;97863.13;6156389;28;20245;-86
2022/04/11 16:49:25;;;;;;;1.63;1.03;;;;;;;9.93;33.63;97871.78;6179977;28;20739;-85
2022/04/11 16:52:27;;;;;;;1.23;0.90;;;;;;;9.77;36.66;97881.78;6180527;28;20597;-85
2022/04/11 16:55:29;;;;;;;0.93;0.70;;;;;;;9.42;39.92;97873.81;6180245;28;20258;-86
2022/04/11 16:58:34;;;;;;;1.73;0.77;;;;;;;9.15;39.68;97877.50;6156598;28;20309;-85
2022/04/11 17:01:36;;;;;;;2.23;0.87;;;;;;;9.12;40.96;97882.13;6179508;28;20229;-84
2022/04/11 17:04:38;;;;;;;1.23;0.80;;;;;;;9.00;41.43;97883.00;6160864;28;20230;-86
2022/04/11 17:07:40;;;;;;;0.90;0.90;;;;;;;8.84;42.74;97886.72;6169429;28;20232;-85
2022/04/11 17:10:42;;;;;;;1.93;0.77;;;;;;;8.73;43.71;97886.63;6173470;28;20229;-85
2022/04/11 17:13:45;;;;;;;1.07;0.70;;;;;;;8.38;45.29;97890.84;6180628;28;20604;-85
2022/04/11 17:20:09;;;;;;;2.10;0.80;;;;;;;8.00;46.05;97886.31;6156447;28;20720;-85
2022/04/11 17:23:11;;;;;;;2.03;1.00;;;;;;;7.71;47.20;97890.88;6162082;28;20454;-85
2022/04/11 17:26:14;;;;;;;2.10;0.60;;;;;;;7.43;48.36;97888.34;6155930;28;20236;-85
2022/04/11 17:29:17;;;;;;;1.90;0.83;;;;;;;7.33;48.19;97890.72;6161674;28;20235;-85
2022/04/11 17:32:19;;;;;;;1.73;0.83;;;;;;;7.24;49.24;97901.81;6163187;28;20232;-85
2022/04/11 17:35:21;;;;;;;1.10;0.90;;;;;;;7.06;49.83;97902.97;6163480;28;20246;-85
2022/04/11 17:38:24;;;;;;;1.53;0.80;;;;;;;6.85;50.09;97896.44;6163757;28;20231;-85
2022/04/11 17:41:27;;;;;;;1.97;0.80;;;;;;;6.72;50.78;97906.00;6179996;28;20229;-85
2022/04/11 17:44:29;;;;;;;1.80;0.80;;;;;;;6.48;51.46;97898.69;6163390;28;20240;-85
2022/04/11 17:47:31;;;;;;;0.50;0.50;;;;;;;6.28;51.92;97896.44;6178918;28;20232;-85